Time;durP1;ratioP1;P1;durP2;ratioP2;P2;SDS_P1;SDS_P2;PMS_P1;PMS_P2;Temp;Humidity;BMP_temperature;BMP_pressure;BME280_temperature;BME280_humidity;BME280_pressure;Samples;Min_cycle;Max_cycle;Signal;HPM_P1;HPM_P2
2021/10/25 00:01:37;;;;;;;0.20;0.10;;;;;;;;;;5033905;28;20038;-61
2021/10/25 00:04:02;;;;;;;0.30;0.15;;;;;;;;;;5034248;28;20041;-62
2021/10/25 00:06:27;;;;;;;1.10;0.20;;;;;;;;;;5034107;28;20017;-63
2021/10/25 00:08:53;;;;;;;0.75;0.20;;;;;;;;;;5033927;28;20104;-62
2021/10/25 00:11:18;;;;;;;0.25;0.25;;;;;;;;;;5033850;28;20036;-61
2021/10/25 00:13:43;;;;;;;2.22;0.20;;;;;;;;;;5033823;28;20465;-62
2021/10/25 00:16:08;;;;;;;1.33;0.30;;;;;;;;;;5033571;28;20025;-61
2021/10/25 00:18:34;;;;;;;1.02;0.08;;;;;;;;;;5033771;28;20376;-62
2021/10/25 00:20:59;;;;;;;0.20;0.13;;;;;;;;;;5033799;28;20373;-62
2021/10/25 00:23:24;;;;;;;0.60;0.20;;;;;;;;;;5033820;28;20385;-62
2021/10/25 00:25:50;;;;;;;0.82;0.28;;;;;;;;;;5033599;28;20062;-62
2021/10/25 00:28:15;;;;;;;0.70;0.20;;;;;;;;;;5033525;28;20036;-63
2021/10/25 00:30:40;;;;;;;0.67;0.30;;;;;;;;;;5033686;28;20671;-61
2021/10/25 00:33:05;;;;;;;0.17;0.10;;;;;;;;;;5033719;28;20163;-62
2021/10/25 00:35:30;;;;;;;0.40;0.20;;;;;;;;;;5033563;28;20032;-62
2021/10/25 00:37:56;;;;;;;1.17;0.45;;;;;;;;;;5026104;28;20055;-62
2021/10/25 00:40:21;;;;;;;0.35;0.20;;;;;;;;;;5013896;28;20049;-62
2021/10/25 00:42:46;;;;;;;1.65;0.22;;;;;;;;;;5012844;28;20049;-62
2021/10/25 00:45:11;;;;;;;1.35;0.68;;;;;;;;;;5013645;28;20030;-61
2021/10/25 00:47:36;;;;;;;0.77;0.13;;;;;;;;;;5013427;28;20096;-61
2021/10/25 00:50:02;;;;;;;0.55;0.10;;;;;;;;;;5013787;28;20480;-61
2021/10/25 00:52:29;;;;;;;0.63;0.20;;;;;;;;;;5013703;28;20061;-61
2021/10/25 00:54:54;;;;;;;0.93;0.20;;;;;;;;;;5013528;28;20097;-62
2021/10/25 00:57:20;;;;;;;0.57;0.30;;;;;;;;;;5013573;28;20113;-62
2021/10/25 00:59:45;;;;;;;0.20;0.10;;;;;;;;;;5013327;28;20018;-62
2021/10/25 01:02:10;;;;;;;0.63;0.38;;;;;;;;;;5013507;28;20053;-62
2021/10/25 01:04:35;;;;;;;0.63;0.45;;;;;;;;;;5012900;28;20022;-61
2021/10/25 01:07:01;;;;;;;0.85;0.28;;;;;;;;;;5013522;28;20022;-62
2021/10/25 01:09:26;;;;;;;0.10;0.10;;;;;;;;;;5013217;28;20021;-62
2021/10/25 01:11:53;;;;;;;0.20;0.10;;;;;;;;;;5012937;28;20453;-62
2021/10/25 01:14:18;;;;;;;0.52;0.20;;;;;;;;;;5013512;28;20392;-62
2021/10/25 01:16:43;;;;;;;1.38;0.20;;;;;;;;;;5013006;28;20054;-62
2021/10/25 01:19:09;;;;;;;0.30;0.30;;;;;;;;;;5013470;28;20018;-61
2021/10/25 01:21:34;;;;;;;0.40;0.10;;;;;;;;;;5013273;28;20106;-61
2021/10/25 01:24:00;;;;;;;0.73;0.35;;;;;;;;;;5013309;28;20073;-62
2021/10/25 01:26:25;;;;;;;0.70;0.30;;;;;;;;;;5013166;28;20108;-62
2021/10/25 01:28:53;;;;;;;1.23;0.35;;;;;;;;;;5013169;28;20093;-62
2021/10/25 01:31:19;;;;;;;0.38;0.20;;;;;;;;;;5013142;28;20068;-62
2021/10/25 01:33:45;;;;;;;1.20;0.30;;;;;;;;;;5012906;28;20032;-61
2021/10/25 01:36:10;;;;;;;0.30;0.10;;;;;;;;;;5013254;28;20025;-61
2021/10/25 01:38:36;;;;;;;1.58;0.20;;;;;;;;;;5025727;28;20033;-61
2021/10/25 01:41:01;;;;;;;0.25;0.15;;;;;;;;;;5032922;28;20045;-61
2021/10/25 01:43:26;;;;;;;0.80;0.13;;;;;;;;;;5032723;28;20032;-62
2021/10/25 01:45:52;;;;;;;0.85;0.50;;;;;;;;;;5032818;28;20030;-62
2021/10/25 01:48:17;;;;;;;1.27;0.60;;;;;;;;;;5032866;28;20017;-62
2021/10/25 01:50:43;;;;;;;0.17;0.10;;;;;;;;;;5032676;28;20013;-62
2021/10/25 01:53:10;;;;;;;0.22;0.00;;;;;;;;;;5033610;28;20104;-61
2021/10/25 01:55:35;;;;;;;0.57;0.20;;;;;;;;;;5036205;28;20022;-62
2021/10/25 01:58:00;;;;;;;0.30;0.10;;;;;;;;;;5036444;28;20033;-62
2021/10/25 02:00:25;;;;;;;0.25;0.10;;;;;;;;;;5044146;23;20049;-62
2021/10/25 02:02:51;;;;;;;1.03;0.30;;;;;;;;;;5036088;28;20018;-62
2021/10/25 02:05:16;;;;;;;0.10;0.10;;;;;;;;;;5036458;28;20645;-62
2021/10/25 02:07:42;;;;;;;0.00;0.00;;;;;;;;;;5036106;28;20029;-62
2021/10/25 02:10:08;;;;;;;0.45;0.10;;;;;;;;;;5036363;28;20461;-62
2021/10/25 02:12:33;;;;;;;0.50;0.20;;;;;;;;;;5036308;28;20035;-62
2021/10/25 02:14:58;;;;;;;0.95;0.35;;;;;;;;;;5036361;28;20375;-61
2021/10/25 02:17:24;;;;;;;0.55;0.25;;;;;;;;;;5035871;28;20060;-62
2021/10/25 02:19:50;;;;;;;0.45;0.22;;;;;;;;;;5036210;28;20520;-63
2021/10/25 02:22:15;;;;;;;0.85;0.20;;;;;;;;;;5036053;28;20097;-62
2021/10/25 02:24:43;;;;;;;0.32;0.10;;;;;;;;;;5035932;28;20093;-62
2021/10/25 02:27:08;;;;;;;0.20;0.10;;;;;;;;;;5035862;28;20026;-63
2021/10/25 02:29:37;;;;;;;1.98;0.20;;;;;;;;;;5035674;28;20037;-61
2021/10/25 02:32:03;;;;;;;0.75;0.10;;;;;;;;;;5036019;28;20104;-62
2021/10/25 02:34:29;;;;;;;0.30;0.10;;;;;;;;;;5035926;28;20021;-62
2021/10/25 02:36:54;;;;;;;0.52;0.10;;;;;;;;;;5035853;28;20018;-62
2021/10/25 02:39:20;;;;;;;0.75;0.20;;;;;;;;;;5035680;28;20076;-62
2021/10/25 02:41:47;;;;;;;0.95;0.20;;;;;;;;;;5035734;28;20093;-61
2021/10/25 02:44:13;;;;;;;0.30;0.10;;;;;;;;;;5035807;28;20018;-61
2021/10/25 02:46:38;;;;;;;1.00;0.40;;;;;;;;;;5034090;28;20021;-62
2021/10/25 02:49:04;;;;;;;0.55;0.10;;;;;;;;;;5035716;28;20031;-62
2021/10/25 02:51:29;;;;;;;0.30;0.13;;;;;;;;;;5035230;28;20033;-62
2021/10/25 02:53:54;;;;;;;0.65;0.10;;;;;;;;;;5035593;28;20033;-62
2021/10/25 02:56:20;;;;;;;0.28;0.10;;;;;;;;;;5035485;28;20024;-62
2021/10/25 02:58:45;;;;;;;0.35;0.10;;;;;;;;;;5035201;28;20026;-62
2021/10/25 03:01:10;;;;;;;0.65;0.10;;;;;;;;;;5035171;28;20508;-62
2021/10/25 03:03:36;;;;;;;0.20;0.10;;;;;;;;;;5034795;28;20404;-62
2021/10/25 03:06:01;;;;;;;0.77;0.30;;;;;;;;;;5034606;28;20247;-62
2021/10/25 03:08:26;;;;;;;0.37;0.13;;;;;;;;;;5035070;28;20021;-61
2021/10/25 03:10:51;;;;;;;0.10;0.00;;;;;;;;;;5035152;28;20317;-62
2021/10/25 03:13:18;;;;;;;0.22;0.20;;;;;;;;;;5035379;28;20024;-63
2021/10/25 03:15:44;;;;;;;0.30;0.20;;;;;;;;;;5034871;28;20049;-62
2021/10/25 03:18:13;;;;;;;0.90;0.15;;;;;;;;;;5035125;28;20025;-61
2021/10/25 03:20:38;;;;;;;1.35;0.20;;;;;;;;;;5034936;28;20013;-62
2021/10/25 03:23:05;;;;;;;0.45;0.20;;;;;;;;;;5034770;28;20056;-62
2021/10/25 03:25:30;;;;;;;0.30;0.20;;;;;;;;;;5034918;28;20022;-63
2021/10/25 03:27:55;;;;;;;1.00;0.10;;;;;;;;;;5034901;28;20404;-62
2021/10/25 03:30:22;;;;;;;0.30;0.20;;;;;;;;;;5034554;28;20013;-61
2021/10/25 03:32:47;;;;;;;0.77;0.10;;;;;;;;;;5034735;28;20412;-62
2021/10/25 03:35:12;;;;;;;0.38;0.20;;;;;;;;;;5034746;28;20022;-63
2021/10/25 03:37:39;;;;;;;0.45;0.20;;;;;;;;;;5034369;28;20017;-62
2021/10/25 03:40:04;;;;;;;0.10;0.00;;;;;;;;;;5034422;28;20017;-61
2021/10/25 03:42:34;;;;;;;0.40;0.22;;;;;;;;;;5034350;28;20022;-62
2021/10/25 03:47:55;;;;;;;0.20;0.10;;;;;;;;;;5034198;28;20033;-63
2021/10/25 03:50:23;;;;;;;0.60;0.10;;;;;;;;;;5034576;28;20021;-61
2021/10/25 03:53:05;;;;;;;0.52;0.20;;;;;;;;;;5034498;28;20018;-62
2021/10/25 03:55:38;;;;;;;0.20;0.10;;;;;;;;;;5034344;28;20377;-61
2021/10/25 04:01:02;;;;;;;0.40;0.10;;;;;;;;;;5034101;28;20049;-63
2021/10/25 04:30:33;;;;;;;0.55;0.10;;;;;;;;;;5011715;28;20469;-62
2021/10/25 04:32:58;;;;;;;0.80;0.10;;;;;;;;;;5011660;28;20420;-62
2021/10/25 04:35:24;;;;;;;0.10;0.00;;;;;;;;;;5011753;28;20049;-63
2021/10/25 04:37:49;;;;;;;0.75;0.10;;;;;;;;;;5011468;28;20124;-63
2021/10/25 04:40:15;;;;;;;0.32;0.05;;;;;;;;;;5011463;28;20088;-61
2021/10/25 04:42:40;;;;;;;2.63;0.10;;;;;;;;;;5016855;28;20484;-61
2021/10/25 04:45:07;;;;;;;0.88;0.20;;;;;;;;;;5033594;28;20462;-62
2021/10/25 04:47:32;;;;;;;1.77;0.38;;;;;;;;;;5033342;28;20025;-62
2021/10/25 04:49:57;;;;;;;0.65;0.32;;;;;;;;;;5033429;28;20029;-62
2021/10/25 04:52:23;;;;;;;0.33;0.13;;;;;;;;;;5033292;28;20021;-62
2021/10/25 04:54:48;;;;;;;0.50;0.10;;;;;;;;;;5033324;28;20345;-62
2021/10/25 04:57:13;;;;;;;0.27;0.10;;;;;;;;;;5033498;28;20026;-63
2021/10/25 04:59:38;;;;;;;1.13;0.10;;;;;;;;;;5033057;28;20725;-62
2021/10/25 05:02:04;;;;;;;0.10;0.10;;;;;;;;;;5033052;28;20539;-62
2021/10/25 05:04:30;;;;;;;0.85;0.30;;;;;;;;;;5033117;28;20266;-62
2021/10/25 05:06:56;;;;;;;0.52;0.10;;;;;;;;;;5032923;28;20064;-63
2021/10/25 05:09:21;;;;;;;0.68;0.17;;;;;;;;;;5033086;28;20014;-62
2021/10/25 05:11:46;;;;;;;0.38;0.10;;;;;;;;;;5033050;28;20014;-62
2021/10/25 05:14:11;;;;;;;0.73;0.40;;;;;;;;;;5033175;28;20018;-62
2021/10/25 05:16:37;;;;;;;0.88;0.10;;;;;;;;;;5032783;28;20587;-62
2021/10/25 05:19:02;;;;;;;0.20;0.15;;;;;;;;;;5033139;28;20373;-63
2021/10/25 05:21:27;;;;;;;0.70;0.15;;;;;;;;;;5032870;28;20040;-61
2021/10/25 05:23:52;;;;;;;0.73;0.22;;;;;;;;;;5033084;28;20416;-62
2021/10/25 05:26:18;;;;;;;0.85;0.20;;;;;;;;;;5033088;28;20022;-63
2021/10/25 05:28:43;;;;;;;0.50;0.20;;;;;;;;;;5034614;28;20483;-62
2021/10/25 05:31:11;;;;;;;1.08;0.30;;;;;;;;;;5037021;28;20490;-62
2021/10/25 05:33:37;;;;;;;1.75;0.10;;;;;;;;;;5036567;28;20025;-62
2021/10/25 05:36:03;;;;;;;1.55;0.22;;;;;;;;;;5036847;28;20072;-62
2021/10/25 05:38:28;;;;;;;0.68;0.15;;;;;;;;;;5036847;28;20030;-62
2021/10/25 05:40:54;;;;;;;0.20;0.17;;;;;;;;;;5036670;28;20112;-62
2021/10/25 05:43:19;;;;;;;0.47;0.10;;;;;;;;;;5036910;28;20018;-61
2021/10/25 05:45:44;;;;;;;1.40;0.10;;;;;;;;;;5036650;28;20318;-61
2021/10/25 05:48:09;;;;;;;0.63;0.13;;;;;;;;;;5036845;28;20028;-62
2021/10/25 05:50:35;;;;;;;0.30;0.20;;;;;;;;;;5035446;28;20780;-62
2021/10/25 05:53:00;;;;;;;0.30;0.20;;;;;;;;;;5036489;28;20484;-64
2021/10/25 05:55:26;;;;;;;0.00;0.00;;;;;;;;;;5036501;28;20507;-62
2021/10/25 05:57:54;;;;;;;0.80;0.10;;;;;;;;;;5036179;28;20030;-61
2021/10/25 06:00:23;;;;;;;1.35;0.22;;;;;;;;;;5036562;28;20046;-62
2021/10/25 06:02:53;;;;;;;1.27;0.20;;;;;;;;;;5036146;28;20018;-61
2021/10/25 06:05:19;;;;;;;0.50;0.10;;;;;;;;;;5036532;28;20053;-62
2021/10/25 06:07:44;;;;;;;0.00;0.00;;;;;;;;;;5036043;28;20045;-63
2021/10/25 06:10:13;;;;;;;0.30;0.20;;;;;;;;;;5036587;28;20447;-61
2021/10/25 06:12:41;;;;;;;0.10;0.05;;;;;;;;;;5036213;28;20018;-62
2021/10/25 06:15:11;;;;;;;1.70;0.47;;;;;;;;;;5036170;28;20018;-62
2021/10/25 06:17:40;;;;;;;0.30;0.20;;;;;;;;;;5035899;28;20018;-62
2021/10/25 06:20:10;;;;;;;0.43;0.10;;;;;;;;;;5036324;28;20025;-63
2021/10/25 06:22:38;;;;;;;0.15;0.10;;;;;;;;;;5035972;28;20056;-61
2021/10/25 06:25:03;;;;;;;0.55;0.17;;;;;;;;;;5036293;28;20484;-62
2021/10/25 06:27:29;;;;;;;1.42;0.20;;;;;;;;;;5035980;28;20034;-62
2021/10/25 06:29:55;;;;;;;0.35;0.20;;;;;;;;;;5036133;28;20457;-62
2021/10/25 06:32:20;;;;;;;0.10;0.03;;;;;;;;;;5035965;28;20125;-63
2021/10/25 06:34:49;;;;;;;1.65;0.30;;;;;;;;;;5036082;28;20610;-62
2021/10/25 06:37:14;;;;;;;0.25;0.10;;;;;;;;;;5035027;28;20022;-61
2021/10/25 06:39:42;;;;;;;0.30;0.20;;;;;;;;;;5034768;28;20075;-62
2021/10/25 06:42:09;;;;;;;0.55;0.20;;;;;;;;;;5036126;28;20018;-62
2021/10/25 06:44:57;;;;;;;1.10;0.10;;;;;;;;;;5035340;28;20018;-62
2021/10/25 06:47:22;;;;;;;0.35;0.15;;;;;;;;;;5035362;28;20033;-63
2021/10/25 06:49:47;;;;;;;0.28;0.08;;;;;;;;;;5033994;28;20072;-62
2021/10/25 06:52:12;;;;;;;0.57;0.17;;;;;;;;;;5035575;28;20033;-63
2021/10/25 06:54:37;;;;;;;0.32;0.10;;;;;;;;;;5035497;28;20038;-61
2021/10/25 06:57:03;;;;;;;0.38;0.10;;;;;;;;;;5035448;28;20047;-62
2021/10/25 06:59:29;;;;;;;0.50;0.40;;;;;;;;;;5035478;28;20037;-62
2021/10/25 07:01:55;;;;;;;0.30;0.20;;;;;;;;;;5035256;28;20083;-62
2021/10/25 07:04:20;;;;;;;0.80;0.15;;;;;;;;;;5035373;28;20021;-62
2021/10/25 07:06:45;;;;;;;0.20;0.20;;;;;;;;;;5035188;28;20025;-62
2021/10/25 07:09:12;;;;;;;0.75;0.10;;;;;;;;;;5035476;28;20064;-62
2021/10/25 07:11:42;;;;;;;0.38;0.17;;;;;;;;;;5035029;28;20041;-66
2021/10/25 07:14:08;;;;;;;0.30;0.20;;;;;;;;;;5035421;28;20444;-66
2021/10/25 07:16:39;;;;;;;0.40;0.15;;;;;;;;;;5035074;28;20021;-66
2021/10/25 08:02:45;;;;;;;0.30;0.10;;;;;;;;;;5034787;28;20025;-66
2021/10/25 08:10:06;;;;;;;0.93;0.20;;;;;;;;;;5034689;28;20107;-66
2021/10/25 08:12:34;;;;;;;0.75;0.20;;;;;;;;;;5034216;28;20101;-66
2021/10/25 08:15:04;;;;;;;0.73;0.20;;;;;;;;;;5034276;28;20029;-65
2021/10/25 08:17:41;;;;;;;1.42;0.10;;;;;;;;;;5033891;28;20570;-65
2021/10/25 08:20:08;;;;;;;1.30;0.10;;;;;;;;;;5034468;28;20395;-65
2021/10/25 08:22:33;;;;;;;0.30;0.10;;;;;;;;;;5033977;28;20014;-66
2021/10/25 08:25:00;;;;;;;1.85;0.25;;;;;;;;;;5034289;28;20029;-66
2021/10/25 08:27:26;;;;;;;1.02;0.32;;;;;;;;;;5033911;28;20437;-66
2021/10/25 08:29:51;;;;;;;0.70;0.20;;;;;;;;;;5034128;28;20376;-65
2021/10/25 08:34:53;;;;;;;0.28;0.20;;;;;;;;;;5034047;28;20407;-66
2021/10/25 08:42:12;;;;;;;1.33;0.20;;;;;;;;;;5034267;28;20067;-65
2021/10/25 08:44:38;;;;;;;1.08;0.20;;;;;;;;;;5033571;28;20105;-66
2021/10/25 08:47:04;;;;;;;0.50;0.22;;;;;;;;;;5033682;28;20013;-66
2021/10/25 08:49:30;;;;;;;1.83;0.10;;;;;;;;;;5033729;28;20024;-66
2021/10/25 08:51:55;;;;;;;0.70;0.10;;;;;;;;;;5033504;28;20017;-66
2021/10/25 08:54:21;;;;;;;0.20;0.10;;;;;;;;;;5033884;28;20345;-65
2021/10/25 08:56:48;;;;;;;0.55;0.20;;;;;;;;;;5033437;28;20461;-66
2021/10/25 08:59:14;;;;;;;0.25;0.10;;;;;;;;;;5033502;28;20010;-66
2021/10/25 09:01:40;;;;;;;0.40;0.20;;;;;;;;;;5033182;28;20068;-66
2021/10/25 09:04:07;;;;;;;0.57;0.10;;;;;;;;;;5033200;28;20029;-66
2021/10/25 09:06:32;;;;;;;0.20;0.20;;;;;;;;;;5033433;28;20059;-65
2021/10/25 09:09:02;;;;;;;0.88;0.22;;;;;;;;;;5033374;28;20018;-65
2021/10/25 09:11:28;;;;;;;0.60;0.20;;;;;;;;;;5033204;28;20025;-66
2021/10/25 09:13:53;;;;;;;0.63;0.10;;;;;;;;;;5033170;28;20028;-65
2021/10/25 09:16:19;;;;;;;0.30;0.10;;;;;;;;;;5032301;28;20022;-65
2021/10/25 09:18:45;;;;;;;1.20;0.20;;;;;;;;;;5032928;28;20017;-65
2021/10/25 09:21:13;;;;;;;0.40;0.30;;;;;;;;;;5033208;28;20466;-65
2021/10/25 09:23:40;;;;;;;0.52;0.38;;;;;;;;;;5033264;28;20096;-66
2021/10/25 09:26:13;;;;;;;0.32;0.10;;;;;;;;;;5032991;28;20356;-66
2021/10/25 09:28:41;;;;;;;1.35;0.25;;;;;;;;;;5033034;28;20025;-66
2021/10/25 09:31:10;;;;;;;1.20;0.20;;;;;;;;;;5033063;28;20022;-66
2021/10/25 09:33:38;;;;;;;1.02;0.60;;;;;;;;;;5032764;28;20013;-65
2021/10/25 09:36:07;;;;;;;0.20;0.10;;;;;;;;;;5033087;28;20029;-65
2021/10/25 09:46:36;;;;;;;0.60;0.15;;;;;;;;;;5033168;28;20093;-64
2021/10/25 09:49:09;;;;;;;0.70;0.10;;;;;;;;;;5033056;28;20017;-65
2021/10/25 09:51:37;;;;;;;0.88;0.30;;;;;;;;;;5032571;28;20368;-65
2021/10/25 09:54:03;;;;;;;0.98;0.15;;;;;;;;;;5032159;28;20068;-66
2021/10/25 09:56:31;;;;;;;0.65;0.15;;;;;;;;;;5031308;28;20029;-66
2021/10/25 09:59:08;;;;;;;1.67;0.52;;;;;;;;;;5032401;28;20026;-66
2021/10/25 10:01:35;;;;;;;0.80;0.20;;;;;;;;;;5032495;28;20050;-65
2021/10/25 10:04:00;;;;;;;0.52;0.30;;;;;;;;;;5031795;28;20018;-65
2021/10/25 10:06:25;;;;;;;0.30;0.17;;;;;;;;;;5032650;28;20024;-65
2021/10/25 10:08:51;;;;;;;0.63;0.22;;;;;;;;;;5032614;28;20143;-66
2021/10/25 10:11:17;;;;;;;0.57;0.25;;;;;;;;;;5031030;28;20491;-66
2021/10/25 10:13:43;;;;;;;0.50;0.10;;;;;;;;;;5032130;28;20108;-65
2021/10/25 10:16:10;;;;;;;0.47;0.20;;;;;;;;;;5034815;28;20022;-65
2021/10/25 10:18:38;;;;;;;0.47;0.20;;;;;;;;;;5034545;28;20376;-66
2021/10/25 10:21:05;;;;;;;0.22;0.20;;;;;;;;;;5036253;28;20515;-66
2021/10/25 10:23:32;;;;;;;0.80;0.50;;;;;;;;;;5035819;28;20029;-66
2021/10/25 10:25:59;;;;;;;0.52;0.20;;;;;;;;;;5035843;28;20044;-66
2021/10/25 10:28:44;;;;;;;0.20;0.20;;;;;;;;;;5035917;28;20100;-65
2021/10/25 10:31:14;;;;;;;0.25;0.25;;;;;;;;;;5036053;28;20439;-65
2021/10/25 10:33:44;;;;;;;0.75;0.10;;;;;;;;;;5036195;28;20108;-65
2021/10/25 10:36:15;;;;;;;1.48;0.25;;;;;;;;;;5036200;28;20017;-66
2021/10/25 10:38:45;;;;;;;0.20;0.10;;;;;;;;;;5035614;28;20026;-66
2021/10/25 10:41:13;;;;;;;0.40;0.10;;;;;;;;;;5036263;28;20026;-66
2021/10/25 10:43:38;;;;;;;0.20;0.10;;;;;;;;;;5035863;28;20097;-65
2021/10/25 10:46:07;;;;;;;0.65;0.20;;;;;;;;;;5035792;28;20040;-65
2021/10/25 10:48:36;;;;;;;0.25;0.00;;;;;;;;;;5035918;28;20455;-65
2021/10/25 10:51:04;;;;;;;0.20;0.20;;;;;;;;;;5035744;28;20021;-65
2021/10/25 10:53:33;;;;;;;1.35;0.30;;;;;;;;;;5035689;28;20021;-66
2021/10/25 10:56:07;;;;;;;1.98;0.10;;;;;;;;;;5035970;28;20041;-65
2021/10/25 10:58:45;;;;;;;0.20;0.10;;;;;;;;;;5035659;28;20025;-66
2021/10/25 11:01:11;;;;;;;0.55;0.10;;;;;;;;;;5035668;28;20034;-66
2021/10/25 11:03:36;;;;;;;0.13;0.08;;;;;;;;;;5035663;28;20396;-66
2021/10/25 11:06:22;;;;;;;0.43;0.10;;;;;;;;;;5034363;28;20024;-65
2021/10/25 11:08:49;;;;;;;0.38;0.13;;;;;;;;;;5034719;28;20029;-65
2021/10/25 11:11:16;;;;;;;1.27;0.17;;;;;;;;;;5035607;28;20104;-61
2021/10/25 11:14:05;;;;;;;0.30;0.10;;;;;;;;;;5034886;28;20030;-62
2021/10/25 11:19:24;;;;;;;0.17;0.10;;;;;;;;;;4985417;28;20397;-62
2021/10/25 11:21:53;;;;;;;0.30;0.10;;;;;;;;;;4989608;28;20038;-62
2021/10/25 11:24:21;;;;;;;0.90;0.20;;;;;;;;;;4992714;28;20551;-61
2021/10/25 11:26:53;;;;;;;1.08;0.32;;;;;;;;;;4992451;28;20037;-62
2021/10/25 11:29:20;;;;;;;0.50;0.10;;;;;;;;;;4990155;28;20032;-62
2021/10/25 11:31:45;;;;;;;0.35;0.17;;;;;;;;;;4993191;28;20031;-62
2021/10/25 11:34:18;;;;;;;0.43;0.05;;;;;;;;;;4992708;28;20029;-64
2021/10/25 11:37:03;;;;;;;0.20;0.10;;;;;;;;;;4976938;28;20054;-61
2021/10/25 11:39:29;;;;;;;1.35;0.20;;;;;;;;;;4992832;28;20445;-61
2021/10/25 11:41:54;;;;;;;0.57;0.17;;;;;;;;;;4992544;28;20054;-60
2021/10/25 11:44:20;;;;;;;1.38;0.10;;;;;;;;;;4992250;28;20465;-61
2021/10/25 11:46:45;;;;;;;0.60;0.10;;;;;;;;;;4992446;28;20042;-61
2021/10/25 11:49:10;;;;;;;1.63;0.50;;;;;;;;;;4992616;28;20433;-61
2021/10/25 11:51:45;;;;;;;0.45;0.22;;;;;;;;;;4992841;28;20571;-61
2021/10/25 11:54:10;;;;;;;2.10;0.32;;;;;;;;;;4992870;28;20567;-59
2021/10/25 11:56:36;;;;;;;0.30;0.10;;;;;;;;;;5023388;28;20044;-60
2021/10/25 11:59:01;;;;;;;1.67;0.35;;;;;;;;;;5038027;28;20055;-60
2021/10/25 12:01:28;;;;;;;0.70;0.10;;;;;;;;;;5034011;28;20068;-61
2021/10/25 12:03:53;;;;;;;0.75;0.20;;;;;;;;;;5031283;28;20625;-60
2021/10/25 12:06:20;;;;;;;0.47;0.10;;;;;;;;;;5033673;28;20055;-60
2021/10/25 12:08:54;;;;;;;0.63;0.13;;;;;;;;;;5033704;28;20029;-61
2021/10/25 12:14:32;;;;;;;1.13;0.30;;;;;;;;;;4972371;28;20422;-60
2021/10/25 12:16:58;;;;;;;0.13;0.08;;;;;;;;;;4967534;28;20038;-60
2021/10/25 12:19:24;;;;;;;1.33;0.20;;;;;;;;;;4972773;28;20027;-60
2021/10/25 12:21:49;;;;;;;0.28;0.20;;;;;;;;;;4964084;28;20100;-60
2021/10/25 12:24:15;;;;;;;1.13;0.23;;;;;;;;;;4971047;28;20033;-60
2021/10/25 12:26:42;;;;;;;0.40;0.10;;;;;;;;;;4971012;28;20308;-61
2021/10/25 12:29:17;;;;;;;0.77;0.17;;;;;;;;;;4972639;28;20406;-61
2021/10/25 12:31:43;;;;;;;0.32;0.10;;;;;;;;;;4977926;28;20030;-62
2021/10/25 12:34:08;;;;;;;0.40;0.10;;;;;;;;;;4966582;28;20037;-61
2021/10/25 12:36:37;;;;;;;0.55;0.05;;;;;;;;;;4968953;28;20046;-60
2021/10/25 12:39:06;;;;;;;0.30;0.10;;;;;;;;;;4952686;28;20058;-60
2021/10/25 12:41:31;;;;;;;0.77;0.30;;;;;;;;;;4959906;28;20050;-61
2021/10/25 12:43:59;;;;;;;0.17;0.10;;;;;;;;;;4969320;28;20485;-61
2021/10/25 12:46:29;;;;;;;0.40;0.00;;;;;;;;;;4970885;28;20470;-61
2021/10/25 12:48:55;;;;;;;0.20;0.10;;;;;;;;;;5012877;28;20168;-60
2021/10/25 12:51:22;;;;;;;1.08;0.10;;;;;;;;;;5032978;28;20100;-60
2021/10/25 12:53:50;;;;;;;0.52;0.10;;;;;;;;;;5032564;28;20088;-60
2021/10/25 12:56:26;;;;;;;0.60;0.20;;;;;;;;;;5033178;28;20097;-60
2021/10/25 12:58:58;;;;;;;0.65;0.13;;;;;;;;;;5032715;28;20100;-60
2021/10/25 13:01:23;;;;;;;0.75;0.10;;;;;;;;;;5029967;28;20044;-62
2021/10/25 13:03:48;;;;;;;0.57;0.10;;;;;;;;;;5032477;28;20030;-60
2021/10/25 13:06:14;;;;;;;0.32;0.05;;;;;;;;;;5031677;28;20064;-60
2021/10/25 13:08:39;;;;;;;0.30;0.15;;;;;;;;;;5033013;28;20049;-60
2021/10/25 13:11:05;;;;;;;0.52;0.10;;;;;;;;;;5032816;28;20033;-61
2021/10/25 13:13:33;;;;;;;0.75;0.20;;;;;;;;;;5034657;28;20479;-61
2021/10/25 13:15:59;;;;;;;0.30;0.20;;;;;;;;;;5033677;28;20021;-60
2021/10/25 13:18:24;;;;;;;0.55;0.20;;;;;;;;;;5032559;28;20108;-60
2021/10/25 13:20:50;;;;;;;1.25;0.32;;;;;;;;;;5038621;28;20029;-60
2021/10/25 13:23:15;;;;;;;1.42;0.50;;;;;;;;;;5030173;28;20452;-60
2021/10/25 13:25:42;;;;;;;0.60;0.10;;;;;;;;;;5033092;28;20025;-60
2021/10/25 13:28:08;;;;;;;0.13;0.10;;;;;;;;;;5020468;28;20027;-61
2021/10/25 13:30:33;;;;;;;0.20;0.03;;;;;;;;;;5032442;28;20017;-61
2021/10/25 13:32:59;;;;;;;0.40;0.32;;;;;;;;;;5036316;28;20059;-60
2021/10/25 13:35:24;;;;;;;0.88;0.10;;;;;;;;;;5032912;28;20021;-60
2021/10/25 13:37:54;;;;;;;0.52;0.10;;;;;;;;;;5032628;28;20028;-60
2021/10/25 13:40:22;;;;;;;0.75;0.10;;;;;;;;;;5035182;28;20062;-61
2021/10/25 13:42:47;;;;;;;0.43;0.10;;;;;;;;;;5040466;28;20010;-60
2021/10/25 13:45:12;;;;;;;1.48;0.20;;;;;;;;;;5032247;28;20413;-61
2021/10/25 13:47:38;;;;;;;0.50;0.50;;;;;;;;;;5033478;28;20024;-60
2021/10/25 13:50:03;;;;;;;0.45;0.30;;;;;;;;;;5034258;28;20018;-60
2021/10/25 13:52:29;;;;;;;0.52;0.10;;;;;;;;;;5035903;28;20024;-60
2021/10/25 13:54:54;;;;;;;0.20;0.10;;;;;;;;;;5035697;28;20017;-60
2021/10/25 13:57:22;;;;;;;0.25;0.15;;;;;;;;;;5035591;28;20026;-60
2021/10/25 13:59:47;;;;;;;0.30;0.20;;;;;;;;;;5038599;28;20024;-60
2021/10/25 14:02:14;;;;;;;0.00;0.00;;;;;;;;;;5031968;28;20037;-60
2021/10/25 14:04:49;;;;;;;0.70;0.10;;;;;;;;;;5034561;28;20105;-60
2021/10/25 14:07:19;;;;;;;0.85;0.10;;;;;;;;;;5035798;28;20059;-60
2021/10/25 14:09:52;;;;;;;0.05;0.05;;;;;;;;;;5034590;28;20013;-60
2021/10/25 14:12:21;;;;;;;0.43;0.20;;;;;;;;;;5035949;28;20067;-60
2021/10/25 14:14:46;;;;;;;0.98;0.17;;;;;;;;;;5034960;28;20010;-60
2021/10/25 14:17:12;;;;;;;0.30;0.20;;;;;;;;;;5035597;28;20025;-61
2021/10/25 14:19:38;;;;;;;0.57;0.10;;;;;;;;;;5034372;28;20040;-61
2021/10/25 14:22:03;;;;;;;0.35;0.30;;;;;;;;;;5034528;28;20092;-60
2021/10/25 14:24:29;;;;;;;0.32;0.00;;;;;;;;;;5034339;28;20104;-61
2021/10/25 14:26:54;;;;;;;0.10;0.08;;;;;;;;;;5034888;28;20017;-60
2021/10/25 14:29:19;;;;;;;0.10;0.10;;;;;;;;;;5035016;28;20025;-61
2021/10/25 14:31:47;;;;;;;1.50;0.30;;;;;;;;;;5035494;28;20262;-61
2021/10/25 14:34:13;;;;;;;0.15;0.05;;;;;;;;;;5035114;28;20044;-61
2021/10/25 14:36:42;;;;;;;0.68;0.20;;;;;;;;;;5025331;28;20464;-60
2021/10/25 14:44:12;;;;;;;0.10;0.00;;;;;;;;;;5035134;28;20033;-61
2021/10/25 14:46:51;;;;;;;0.10;0.10;;;;;;;;;;5035493;28;20025;-61
2021/10/25 14:54:32;;;;;;;0.65;0.20;;;;;;;;;;5035140;28;20273;-60
2021/10/25 14:56:58;;;;;;;0.05;0.00;;;;;;;;;;5035535;28;20064;-60
2021/10/25 14:59:24;;;;;;;0.10;0.10;;;;;;;;;;5034772;28;20037;-60
2021/10/25 15:01:49;;;;;;;0.17;0.10;;;;;;;;;;5034089;28;20045;-60
2021/10/25 15:04:16;;;;;;;0.40;0.13;;;;;;;;;;5035128;28;20388;-60
2021/10/25 15:06:41;;;;;;;0.08;0.08;;;;;;;;;;5034732;28;20014;-61
2021/10/25 15:09:06;;;;;;;0.50;0.20;;;;;;;;;;5035138;28;20105;-60
2021/10/25 15:11:31;;;;;;;0.43;0.10;;;;;;;;;;5033355;28;20032;-61
2021/10/25 15:13:57;;;;;;;0.63;0.10;;;;;;;;;;5034364;28;20460;-60
2021/10/25 15:16:24;;;;;;;0.45;0.20;;;;;;;;;;5033908;28;20024;-61
2021/10/25 15:18:51;;;;;;;0.90;0.10;;;;;;;;;;5034664;28;20041;-60
2021/10/25 15:21:17;;;;;;;0.13;0.05;;;;;;;;;;5034434;28;20349;-60
2021/10/25 15:23:42;;;;;;;0.30;0.10;;;;;;;;;;5033403;28;20044;-60
2021/10/25 15:26:08;;;;;;;0.40;0.10;;;;;;;;;;5034977;28;20047;-61
2021/10/25 15:28:33;;;;;;;0.75;0.20;;;;;;;;;;5034643;28;20028;-61
2021/10/25 15:30:59;;;;;;;0.15;0.10;;;;;;;;;;5035011;28;20381;-61
2021/10/25 15:33:24;;;;;;;1.00;0.30;;;;;;;;;;5034557;28;20052;-61
2021/10/25 15:35:53;;;;;;;1.08;0.10;;;;;;;;;;5034775;28;20030;-60
2021/10/25 15:38:22;;;;;;;0.10;0.10;;;;;;;;;;5034691;28;20045;-60
2021/10/25 15:40:48;;;;;;;0.88;0.17;;;;;;;;;;5034547;28;20503;-60
2021/10/25 15:43:13;;;;;;;0.40;0.10;;;;;;;;;;5034570;28;20021;-60
2021/10/25 15:45:39;;;;;;;0.43;0.22;;;;;;;;;;5034578;28;20093;-60
2021/10/25 15:48:04;;;;;;;1.50;0.17;;;;;;;;;;5034660;28;20048;-60
2021/10/25 15:50:29;;;;;;;0.17;0.17;;;;;;;;;;5034208;28;20057;-60
2021/10/25 15:52:59;;;;;;;0.57;0.10;;;;;;;;;;5034420;28;20247;-61
2021/10/25 15:55:24;;;;;;;0.32;0.10;;;;;;;;;;5034472;28;20021;-60
2021/10/25 15:57:50;;;;;;;0.13;0.00;;;;;;;;;;5032975;28;20033;-61
2021/10/25 16:00:16;;;;;;;0.10;0.10;;;;;;;;;;5033977;28;20432;-60
2021/10/25 16:02:41;;;;;;;0.40;0.10;;;;;;;;;;5034239;28;20030;-60
2021/10/25 16:05:07;;;;;;;1.27;0.30;;;;;;;;;;5034159;28;20257;-60
2021/10/25 16:07:32;;;;;;;0.13;0.13;;;;;;;;;;5034051;28;20048;-60
2021/10/25 16:09:57;;;;;;;0.75;0.13;;;;;;;;;;5034181;28;20033;-60
2021/10/25 16:12:22;;;;;;;0.45;0.22;;;;;;;;;;5034147;28;20025;-62
2021/10/25 16:14:48;;;;;;;0.35;0.20;;;;;;;;;;5034016;28;20028;-60
2021/10/25 16:17:14;;;;;;;0.55;0.10;;;;;;;;;;5034108;28;20048;-60
2021/10/25 16:19:43;;;;;;;1.10;0.10;;;;;;;;;;5033771;28;20063;-61
2021/10/25 16:22:08;;;;;;;0.63;0.32;;;;;;;;;;5034068;28;20101;-60
2021/10/25 16:24:34;;;;;;;0.50;0.20;;;;;;;;;;5033821;28;20088;-60
2021/10/25 16:27:00;;;;;;;0.75;0.20;;;;;;;;;;5033978;28;20025;-60
2021/10/25 16:29:25;;;;;;;0.50;0.10;;;;;;;;;;5033921;28;20025;-60
2021/10/25 16:31:50;;;;;;;0.17;0.10;;;;;;;;;;5032450;28;20029;-61
2021/10/25 16:34:15;;;;;;;0.50;0.10;;;;;;;;;;5032529;28;20389;-61